Time;durP1;ratioP1;P1;durP2;ratioP2;P2;SDS_P1;SDS_P2;PMS_P1;PMS_P2;Temp;Humidity;BMP_temperature;BMP_pressure;BME280_temperature;BME280_humidity;BME280_pressure;Samples;Min_cycle;Max_cycle;Signal;HPM_P1;HPM_P2
2023/08/13 00:01:04;;;;;;;8.10;5.33;;;18.70;99.90;;;;;;5032154;28;20263;-78
2023/08/13 00:03:32;;;;;;;6.27;4.57;;;18.60;99.90;;;;;;5032278;28;20388;-78
2023/08/13 00:06:01;;;;;;;5.80;4.67;;;18.60;99.90;;;;;;5032492;28;20240;-78
2023/08/13 00:08:29;;;;;;;6.50;4.60;;;18.60;99.90;;;;;;5031933;28;20236;-79
2023/08/13 00:10:57;;;;;;;10.20;5.30;;;18.60;99.90;;;;;;5038349;28;20695;-78
2023/08/13 00:13:25;;;;;;;6.80;5.20;;;18.60;99.90;;;;;;5052037;28;20215;-77
2023/08/13 00:15:54;;;;;;;8.33;4.87;;;18.70;99.90;;;;;;5051809;28;20663;-76
2023/08/13 00:18:22;;;;;;;4.93;4.40;;;18.70;99.90;;;;;;5043834;28;20216;-75
2023/08/13 00:20:51;;;;;;;6.20;4.60;;;18.70;99.90;;;;;;5031980;28;20255;-79
2023/08/13 00:23:19;;;;;;;8.53;5.27;;;18.60;99.90;;;;;;5031573;28;20923;-79
2023/08/13 00:25:47;;;;;;;7.00;4.63;;;18.70;99.90;;;;;;5031954;28;20212;-77
2023/08/13 00:28:15;;;;;;;7.60;5.07;;;18.70;99.90;;;;;;5048569;28;20274;-74
2023/08/13 00:30:43;;;;;;;9.33;4.87;;;18.70;99.90;;;;;;5051858;28;20574;-78
2023/08/13 00:33:13;;;;;;;9.63;5.00;;;18.70;99.90;;;;;;5051159;28;20243;-73
2023/08/13 00:35:42;;;;;;;5.27;4.77;;;18.70;99.90;;;;;;5045504;28;20732;-75
2023/08/13 00:38:10;;;;;;;8.20;5.00;;;18.70;99.90;;;;;;5038574;28;20270;-78
2023/08/13 00:40:38;;;;;;;6.67;5.20;;;18.70;99.90;;;;;;5051377;28;20666;-75
2023/08/13 00:43:06;;;;;;;6.47;4.97;;;18.70;99.90;;;;;;5051347;28;20247;-77
2023/08/13 00:45:35;;;;;;;5.47;4.60;;;18.70;99.90;;;;;;5051699;28;20239;-76
2023/08/13 00:48:07;;;;;;;7.27;5.13;;;18.80;99.90;;;;;;5051656;28;20216;-75
2023/08/13 00:50:37;;;;;;;6.53;4.57;;;18.80;99.90;;;;;;5051448;28;20252;-75
2023/08/13 00:53:07;;;;;;;5.80;4.20;;;18.80;99.90;;;;;;5046319;28;20204;-75
2023/08/13 00:55:35;;;;;;;7.20;4.80;;;18.80;99.90;;;;;;5031621;28;20262;-77
2023/08/13 00:58:04;;;;;;;6.80;4.77;;;18.80;99.90;;;;;;5031886;28;20208;-75
2023/08/13 01:00:33;;;;;;;6.13;4.80;;;18.90;99.90;;;;;;5031636;28;20259;-76
2023/08/13 01:03:02;;;;;;;6.30;4.20;;;18.90;99.90;;;;;;5031419;28;20209;-75
2023/08/13 01:05:39;;;;;;;5.63;4.47;;;18.90;99.90;;;;;;5032028;28;20212;-79
2023/08/13 01:08:14;;;;;;;6.67;4.53;;;18.80;99.90;;;;;;5031698;28;20693;-78
2023/08/13 01:10:52;;;;;;;7.63;4.43;;;18.80;99.90;;;;;;5031651;28;20225;-79
2023/08/13 01:13:26;;;;;;;5.63;4.37;;;18.80;99.90;;;;;;5031646;28;20655;-79
2023/08/13 01:15:57;;;;;;;7.57;4.43;;;18.90;99.90;;;;;;5032325;28;20278;-76
2023/08/13 01:18:26;;;;;;;6.80;4.60;;;18.80;99.90;;;;;;5032147;28;20196;-79
2023/08/13 01:20:55;;;;;;;5.07;4.03;;;18.70;99.90;;;;;;5033105;28;20270;-77
2023/08/13 01:23:25;;;;;;;5.53;4.70;;;18.70;99.90;;;;;;5053412;28;20278;-78
2023/08/13 01:25:58;;;;;;;7.37;4.60;;;18.70;99.90;;;;;;5055144;28;20216;-80
2023/08/13 01:28:34;;;;;;;6.53;4.40;;;18.70;99.90;;;;;;5055193;28;20204;-78
2023/08/13 01:31:09;;;;;;;8.27;4.97;;;18.60;99.90;;;;;;5055057;28;20212;-79
2023/08/13 01:33:39;;;;;;;6.53;4.20;;;18.60;99.90;;;;;;5054648;28;20218;-78
2023/08/13 01:36:08;;;;;;;8.93;4.70;;;18.60;99.90;;;;;;5054663;28;20199;-79
2023/08/13 01:38:39;;;;;;;7.40;5.17;;;18.60;99.90;;;;;;5054684;28;20200;-78
2023/08/13 01:41:07;;;;;;;8.20;4.73;;;18.60;99.90;;;;;;5040943;28;20279;-80
2023/08/13 01:43:35;;;;;;;6.43;5.13;;;18.60;99.90;;;;;;5034153;28;20229;-78
2023/08/13 01:46:04;;;;;;;8.20;4.57;;;18.60;99.90;;;;;;5034653;28;20213;-78
2023/08/13 01:48:32;;;;;;;5.30;4.60;;;18.60;99.90;;;;;;5034361;28;20689;-79
2023/08/13 01:51:00;;;;;;;6.07;4.33;;;18.60;99.90;;;;;;5034329;28;20279;-76
2023/08/13 01:53:28;;;;;;;6.77;4.50;;;18.50;99.90;;;;;;5035417;28;20260;-79
2023/08/13 01:55:58;;;;;;;8.67;4.80;;;18.50;99.90;;;;;;5034827;28;20220;-77
2023/08/13 01:58:27;;;;;;;6.27;4.27;;;18.50;99.90;;;;;;5040156;28;20212;-77
2023/08/13 02:00:55;;;;;;;5.67;4.33;;;18.40;99.90;;;;;;5054258;28;20593;-77
2023/08/13 02:03:23;;;;;;;5.90;4.77;;;18.40;99.90;;;;;;5053474;28;20295;-79
2023/08/13 02:05:51;;;;;;;6.53;4.20;;;18.30;99.90;;;;;;5054351;28;20262;-79
2023/08/13 02:08:19;;;;;;;7.37;4.50;;;18.30;99.90;;;;;;5034725;28;20271;-77
2023/08/13 02:10:47;;;;;;;6.30;4.50;;;18.30;99.90;;;;;;5033811;28;20296;-79
2023/08/13 02:13:17;;;;;;;5.43;4.20;;;18.20;99.90;;;;;;5033531;28;20263;-78
2023/08/13 02:15:45;;;;;;;6.67;4.30;;;18.10;99.90;;;;;;5033931;28;20209;-78
2023/08/13 02:18:13;;;;;;;8.10;4.37;;;18.10;99.90;;;;;;5034064;28;20205;-79
2023/08/13 02:20:41;;;;;;;6.43;4.30;;;18.10;99.90;;;;;;5033601;28;20229;-78
2023/08/13 02:23:09;;;;;;;5.27;4.00;;;18.10;99.90;;;;;;5033747;28;20213;-78
2023/08/13 02:25:37;;;;;;;5.90;4.13;;;18.00;99.90;;;;;;5034038;28;20212;-78
2023/08/13 02:28:06;;;;;;;5.50;4.57;;;18.00;99.90;;;;;;5033622;28;20670;-78
2023/08/13 02:30:37;;;;;;;5.77;4.60;;;18.00;99.90;;;;;;5034076;28;20239;-77
2023/08/13 02:33:06;;;;;;;7.23;4.80;;;18.00;99.90;;;;;;5033420;28;20204;-77
2023/08/13 02:35:34;;;;;;;8.60;4.97;;;18.00;99.90;;;;;;5041179;28;20603;-79
2023/08/13 02:38:02;;;;;;;9.43;5.40;;;17.90;99.90;;;;;;5053941;28;20230;-79
2023/08/13 02:40:30;;;;;;;7.70;5.47;;;17.90;99.90;;;;;;5044943;28;20236;-78
2023/08/13 02:42:58;;;;;;;8.37;5.10;;;17.80;99.90;;;;;;5033359;28;20209;-79
2023/08/13 02:45:26;;;;;;;11.77;6.60;;;17.80;99.90;;;;;;5033646;28;20209;-81
2023/08/13 02:47:57;;;;;;;9.47;6.00;;;17.80;99.90;;;;;;5032888;28;20656;-78
2023/08/13 02:50:25;;;;;;;12.10;6.13;;;17.80;99.90;;;;;;5033478;28;20200;-80
2023/08/13 02:52:53;;;;;;;10.27;6.63;;;17.80;99.90;;;;;;5033079;28;20681;-79
2023/08/13 02:55:21;;;;;;;9.23;6.87;;;17.80;99.90;;;;;;5033662;28;20278;-79
2023/08/13 02:57:49;;;;;;;8.37;5.87;;;17.70;99.90;;;;;;5033040;28;20209;-77
2023/08/13 03:00:36;;;;;;;12.23;6.57;;;17.70;99.90;;;;;;5041985;28;20213;-80
2023/08/13 03:03:06;;;;;;;9.00;6.27;;;17.70;99.90;;;;;;5032707;28;20213;-79
2023/08/13 03:05:34;;;;;;;7.40;6.57;;;17.60;99.90;;;;;;5032818;28;20287;-78
2023/08/13 03:08:02;;;;;;;8.17;6.37;;;17.70;99.90;;;;;;5052445;28;20224;-78
2023/08/13 03:10:31;;;;;;;10.97;6.97;;;17.60;99.90;;;;;;5052874;28;20208;-78
2023/08/13 03:12:59;;;;;;;9.83;6.40;;;17.60;99.90;;;;;;5052665;28;20571;-77
2023/08/13 03:15:27;;;;;;;13.27;7.07;;;17.70;99.90;;;;;;5044194;28;20655;-78
2023/08/13 03:17:55;;;;;;;9.23;6.63;;;17.70;99.90;;;;;;5032751;28;20236;-79
2023/08/13 03:20:25;;;;;;;8.27;6.67;;;17.70;99.90;;;;;;5032894;28;20240;-78
2023/08/13 03:22:53;;;;;;;9.50;6.50;;;17.70;99.90;;;;;;5039966;28;20212;-78
2023/08/13 03:25:21;;;;;;;8.80;6.40;;;17.70;99.90;;;;;;5033005;28;20228;-79
2023/08/13 03:27:50;;;;;;;10.27;6.77;;;17.80;99.90;;;;;;5032560;28;20577;-77
2023/08/13 03:30:18;;;;;;;9.73;6.97;;;17.80;99.90;;;;;;5032416;28;20209;-77
2023/08/13 03:32:46;;;;;;;10.03;6.80;;;17.80;99.90;;;;;;5032166;28;20209;-77
2023/08/13 03:35:15;;;;;;;7.17;6.40;;;17.90;99.90;;;;;;5049928;28;20266;-78
2023/08/13 03:37:44;;;;;;;10.43;6.40;;;17.90;99.90;;;;;;5052631;28;20204;-78
2023/08/13 03:40:13;;;;;;;8.93;5.83;;;17.90;99.90;;;;;;5032390;28;20282;-78
2023/08/13 03:42:41;;;;;;;11.60;6.70;;;17.90;99.90;;;;;;5045551;28;20215;-77
2023/08/13 03:45:10;;;;;;;8.23;6.07;;;18.00;99.90;;;;;;5051403;28;20706;-78
2023/08/13 03:47:38;;;;;;;8.27;6.10;;;18.00;99.90;;;;;;5049334;28;20726;-79
2023/08/13 03:50:06;;;;;;;8.63;6.67;;;18.00;99.90;;;;;;5049837;28;20567;-79
2023/08/13 03:52:35;;;;;;;7.27;6.13;;;18.00;99.90;;;;;;5051785;28;20208;-77
2023/08/13 03:55:05;;;;;;;9.87;6.23;;;18.00;99.90;;;;;;5051975;28;20350;-78
2023/08/13 03:57:34;;;;;;;6.57;5.77;;;18.00;99.90;;;;;;5052057;28;20204;-78
2023/08/13 04:00:02;;;;;;;9.63;6.03;;;17.90;99.90;;;;;;5048319;28;20262;-79
2023/08/13 04:02:33;;;;;;;9.00;6.27;;;17.90;99.90;;;;;;5031499;28;20212;-75
2023/08/13 04:05:05;;;;;;;8.27;6.40;;;17.90;99.90;;;;;;5031804;28;20683;-77
2023/08/13 04:07:34;;;;;;;9.37;5.80;;;17.80;99.90;;;;;;5031986;28;20216;-75
2023/08/13 04:10:02;;;;;;;7.93;5.83;;;17.80;99.90;;;;;;5032403;28;20213;-74
2023/08/13 04:12:31;;;;;;;8.17;6.73;;;17.80;99.90;;;;;;5031790;28;20217;-76
2023/08/13 04:14:59;;;;;;;11.63;6.20;;;17.70;99.90;;;;;;5032076;28;20234;-76
2023/08/13 04:17:27;;;;;;;10.53;6.20;;;17.70;99.90;;;;;;5031653;28;20740;-76
2023/08/13 04:19:56;;;;;;;12.80;6.77;;;17.60;99.90;;;;;;5032068;28;20212;-76
2023/08/13 04:22:24;;;;;;;9.27;6.37;;;17.70;99.90;;;;;;5030844;28;20229;-75
2023/08/13 04:24:52;;;;;;;9.53;6.60;;;17.60;99.90;;;;;;5032021;28;20220;-75
2023/08/13 04:27:20;;;;;;;6.77;5.87;;;17.60;99.90;;;;;;5031746;28;20212;-74
2023/08/13 04:29:50;;;;;;;8.93;6.47;;;17.60;99.90;;;;;;5031545;28;20741;-75
2023/08/13 04:32:18;;;;;;;6.77;5.77;;;17.60;99.90;;;;;;5049975;28;20269;-75
2023/08/13 04:34:46;;;;;;;8.17;6.00;;;17.60;99.90;;;;;;5051610;28;20212;-73
2023/08/13 04:37:14;;;;;;;9.40;6.63;;;17.60;99.90;;;;;;5051386;28;20265;-76
2023/08/13 04:39:42;;;;;;;8.80;5.73;;;17.70;99.90;;;;;;5044718;28;20304;-76
2023/08/13 04:42:10;;;;;;;7.27;6.33;;;17.70;99.90;;;;;;5031613;28;20228;-75
2023/08/13 04:44:39;;;;;;;10.57;6.13;;;17.80;99.90;;;;;;5031973;28;20229;-76
2023/08/13 04:47:09;;;;;;;8.27;5.80;;;17.90;99.90;;;;;;5031896;28;20267;-75
2023/08/13 04:49:37;;;;;;;8.37;6.00;;;18.00;99.90;;;;;;5031975;28;20212;-75
2023/08/13 04:52:05;;;;;;;7.10;5.57;;;18.00;99.90;;;;;;5031186;28;20570;-76
2023/08/13 04:54:33;;;;;;;9.97;7.00;;;18.00;99.90;;;;;;5032011;28;20563;-75
2023/08/13 04:57:01;;;;;;;8.67;6.10;;;18.00;99.90;;;;;;5031624;28;20255;-76
2023/08/13 04:59:29;;;;;;;7.77;6.20;;;18.00;99.90;;;;;;5036551;28;20213;-74
2023/08/13 05:01:57;;;;;;;7.50;6.57;;;18.10;99.90;;;;;;5036859;28;20259;-75
2023/08/13 05:04:27;;;;;;;7.83;6.23;;;18.10;99.90;;;;;;5035749;28;20216;-74
2023/08/13 05:06:55;;;;;;;10.37;6.30;;;18.20;99.90;;;;;;5035367;28;20337;-74
2023/08/13 05:09:23;;;;;;;7.87;6.30;;;18.20;99.90;;;;;;5035349;28;20216;-74
2023/08/13 05:11:51;;;;;;;11.30;6.63;;;18.30;99.90;;;;;;5035387;28;20227;-75
2023/08/13 05:14:20;;;;;;;6.50;5.70;;;18.30;99.90;;;;;;5036588;28;20312;-75
2023/08/13 05:16:48;;;;;;;7.10;5.93;;;18.40;99.90;;;;;;5055207;28;20208;-74
2023/08/13 05:19:16;;;;;;;6.50;5.43;;;18.50;99.90;;;;;;5055160;28;20215;-75
2023/08/13 05:21:45;;;;;;;7.87;5.93;;;18.50;99.90;;;;;;5054439;28;20231;-75
2023/08/13 05:24:13;;;;;;;7.40;5.63;;;18.60;99.90;;;;;;5051644;28;20213;-73
2023/08/13 05:26:42;;;;;;;7.27;5.20;;;18.70;99.90;;;;;;5034983;28;20213;-74
2023/08/13 05:29:10;;;;;;;8.17;5.43;;;18.70;99.90;;;;;;5034595;28;20235;-75
2023/08/13 05:31:38;;;;;;;7.87;6.00;;;18.80;99.90;;;;;;5045521;28;20223;-74
2023/08/13 05:34:06;;;;;;;7.10;6.27;;;18.90;99.90;;;;;;5051479;28;20208;-74
2023/08/13 05:36:34;;;;;;;7.37;5.97;;;19.00;99.90;;;;;;5034862;28;20208;-73
2023/08/13 05:39:05;;;;;;;7.10;5.47;;;19.10;99.90;;;;;;5034592;28;20642;-76
2023/08/13 05:41:33;;;;;;;8.77;5.40;;;19.20;99.90;;;;;;5034658;28;20233;-75
2023/08/13 05:44:02;;;;;;;6.90;5.03;;;19.30;99.90;;;;;;5033813;28;20733;-76
2023/08/13 05:46:30;;;;;;;6.67;5.27;;;19.40;99.90;;;;;;5034757;28;20674;-76
2023/08/13 05:48:58;;;;;;;7.00;5.23;;;19.40;99.90;;;;;;5034680;28;20205;-74
2023/08/13 05:51:26;;;;;;;7.13;5.03;;;19.60;99.90;;;;;;5034127;28;20596;-75
2023/08/13 05:53:54;;;;;;;5.80;4.80;;;19.60;99.90;;;;;;5034684;28;20267;-75
2023/08/13 05:56:24;;;;;;;8.73;4.80;;;19.80;99.90;;;;;;5035032;28;20220;-74
2023/08/13 05:58:52;;;;;;;6.37;4.83;;;19.90;99.90;;;;;;5035112;28;20239;-75
2023/08/13 06:01:20;;;;;;;7.07;4.87;;;20.00;99.90;;;;;;5036493;28;20270;-75
2023/08/13 06:03:48;;;;;;;5.13;4.33;;;20.10;99.90;;;;;;5045186;28;20208;-75
2023/08/13 06:06:16;;;;;;;8.10;4.40;;;20.30;99.90;;;;;;5046313;28;20239;-75
2023/08/13 06:08:44;;;;;;;5.63;4.03;;;20.50;99.90;;;;;;5044138;28;20570;-76
2023/08/13 06:11:13;;;;;;;7.77;3.87;;;20.70;99.90;;;;;;5042458;28;20209;-75
2023/08/13 06:13:42;;;;;;;5.97;4.27;;;20.90;99.90;;;;;;5035924;28;20212;-76
2023/08/13 06:16:11;;;;;;;6.33;4.10;;;21.10;99.90;;;;;;5052907;28;20295;-76
2023/08/13 06:18:39;;;;;;;6.20;3.90;;;21.40;99.90;;;;;;5054042;28;20212;-77
2023/08/13 06:21:07;;;;;;;6.70;3.80;;;21.60;99.90;;;;;;5053993;28;20215;-77
2023/08/13 06:23:35;;;;;;;5.93;4.07;;;21.80;99.90;;;;;;5052083;28;20227;-77
2023/08/13 06:26:03;;;;;;;10.57;3.77;;;21.90;99.90;;;;;;5033894;28;20211;-76
2023/08/13 06:28:31;;;;;;;6.10;3.73;;;22.00;99.90;;;;;;5033899;28;20212;-74
2023/08/13 06:31:01;;;;;;;6.60;3.47;;;22.10;99.90;;;;;;5050868;28;20234;-76
2023/08/13 06:33:30;;;;;;;6.23;3.90;;;22.50;99.90;;;;;;5045316;28;20647;-78
2023/08/13 06:35:58;;;;;;;6.50;3.90;;;22.90;99.90;;;;;;5033852;28;20208;-76
2023/08/13 06:38:28;;;;;;;6.17;3.83;;;23.20;99.90;;;;;;5033317;28;20638;-77
2023/08/13 06:41:02;;;;;;;4.57;3.30;;;23.50;99.90;;;;;;5033369;28;20581;-77
2023/08/13 06:43:31;;;;;;;6.13;3.93;;;24.00;99.90;;;;;;5048187;28;20227;-76
2023/08/13 06:46:01;;;;;;;4.10;3.60;;;24.00;99.90;;;;;;5053388;28;20212;-76
2023/08/13 06:48:34;;;;;;;6.20;3.97;;;24.00;99.90;;;;;;5053106;28;20467;-76
2023/08/13 06:51:02;;;;;;;5.67;3.87;;;23.90;99.90;;;;;;5049422;28;20577;-77
2023/08/13 06:53:31;;;;;;;5.23;3.87;;;23.90;99.90;;;;;;5033061;28;20244;-74
2023/08/13 06:56:02;;;;;;;5.83;3.87;;;24.20;99.90;;;;;;5033758;28;20236;-76
2023/08/13 06:58:31;;;;;;;5.30;3.40;;;24.30;99.90;;;;;;5052703;28;20208;-77
2023/08/13 07:01:00;;;;;;;6.73;3.20;;;24.60;99.90;;;;;;5050003;28;20718;-78
2023/08/13 07:03:29;;;;;;;4.80;2.97;;;25.00;99.90;;;;;;5052156;28;20216;-77
2023/08/13 07:05:57;;;;;;;4.47;3.30;;;25.20;99.90;;;;;;5052251;28;20204;-77
2023/08/13 07:08:25;;;;;;;4.60;3.13;;;25.00;99.90;;;;;;5049306;28;20216;-75
2023/08/13 07:10:53;;;;;;;4.77;3.30;;;25.00;99.90;;;;;;5049800;28;20204;-74
2023/08/13 07:13:21;;;;;;;4.67;3.23;;;25.10;99.90;;;;;;5052588;28;20204;-76
2023/08/13 07:15:50;;;;;;;4.90;3.10;;;25.20;99.90;;;;;;5052207;28;20201;-77
2023/08/13 07:18:19;;;;;;;6.73;3.00;;;25.70;99.90;;;;;;5049149;28;20215;-76
2023/08/13 07:20:47;;;;;;;5.23;3.00;;;26.30;99.90;;;;;;5050469;28;20231;-76
2023/08/13 07:23:16;;;;;;;3.80;2.80;;;26.80;99.90;;;;;;5050564;28;20224;-78
2023/08/13 07:25:44;;;;;;;5.77;3.30;;;27.20;99.90;;;;;;5034739;28;20209;-76
2023/08/13 07:28:12;;;;;;;4.40;3.10;;;27.60;99.90;;;;;;5037216;28;20208;-78
2023/08/13 07:30:41;;;;;;;5.07;3.17;;;28.00;99.90;;;;;;5051602;28;20208;-77
2023/08/13 07:33:09;;;;;;;3.83;2.72;;;28.30;99.90;;;;;;5042645;28;20596;-79
2023/08/13 07:35:40;;;;;;;6.30;3.28;;;29.10;99.90;;;;;;5031708;28;20209;-77
2023/08/13 07:38:08;;;;;;;4.68;3.00;;;29.60;99.90;;;;;;5032349;28;20263;-73
2023/08/13 07:40:36;;;;;;;6.18;3.20;;;30.30;99.90;;;;;;5032421;28;20209;-77
2023/08/13 07:43:04;;;;;;;4.30;3.10;;;30.80;96.70;;;;;;5046591;28;20216;-75
2023/08/13 07:45:34;;;;;;;4.60;2.80;;;32.00;94.80;;;;;;5052090;28;20212;-75
2023/08/13 07:48:02;;;;;;;3.40;2.67;;;33.20;90.50;;;;;;5049739;28;20622;-75
2023/08/13 07:50:30;;;;;;;3.00;2.70;;;33.00;85.20;;;;;;5050987;28;20295;-76
2023/08/13 07:53:00;;;;;;;4.85;2.85;;;32.10;89.40;;;;;;5051597;28;20223;-76
2023/08/13 07:55:28;;;;;;;3.42;2.67;;;30.90;91.60;;;;;;5050979;28;20207;-76
2023/08/13 07:57:56;;;;;;;3.85;2.70;;;29.90;94.00;;;;;;5050619;28;20204;-74
2023/08/13 08:00:24;;;;;;;3.40;2.47;;;29.40;96.00;;;;;;5046969;28;20211;-78
2023/08/13 08:02:54;;;;;;;5.00;2.75;;;28.20;96.40;;;;;;5049839;28;20687;-75
2023/08/13 08:05:22;;;;;;;3.95;3.00;;;27.50;99.30;;;;;;5050911;28;20207;-76
2023/08/13 08:07:50;;;;;;;3.77;2.73;;;26.90;99.90;;;;;;5042185;28;20220;-77
2023/08/13 08:10:20;;;;;;;9.73;3.07;;;26.40;99.90;;;;;;5031924;28;20213;-77
2023/08/13 08:12:48;;;;;;;6.83;3.20;;;26.10;99.90;;;;;;5031651;28;20721;-77
2023/08/13 08:15:16;;;;;;;3.80;2.90;;;26.00;99.90;;;;;;5031974;28;20258;-77
2023/08/13 08:17:44;;;;;;;5.03;3.27;;;26.00;99.90;;;;;;5031658;28;20209;-76
2023/08/13 08:20:12;;;;;;;4.70;3.00;;;25.70;99.90;;;;;;5032138;28;20295;-77
2023/08/13 08:22:41;;;;;;;3.47;2.87;;;25.60;99.90;;;;;;5031498;28;20758;-77
2023/08/13 08:25:09;;;;;;;5.23;3.20;;;25.60;99.90;;;;;;5031961;28;20283;-77
2023/08/13 08:27:39;;;;;;;4.23;3.20;;;25.50;99.90;;;;;;5031857;28;20220;-75
2023/08/13 08:30:08;;;;;;;4.43;3.20;;;25.50;99.90;;;;;;5032320;28;20275;-75
2023/08/13 08:32:37;;;;;;;7.57;3.20;;;25.90;99.90;;;;;;5032612;28;20521;-76
2023/08/13 08:35:06;;;;;;;4.07;3.00;;;26.70;99.90;;;;;;5036364;28;20213;-76
2023/08/13 08:37:35;;;;;;;4.33;3.10;;;28.00;99.90;;;;;;5035882;28;20212;-75
2023/08/13 08:40:04;;;;;;;3.72;2.80;;;28.90;99.90;;;;;;5035726;28;20683;-77
2023/08/13 08:42:33;;;;;;;4.75;3.00;;;29.10;99.90;;;;;;5035674;28;20216;-75
2023/08/13 08:45:03;;;;;;;4.55;3.20;;;29.40;99.30;;;;;;5035636;28;20224;-77
2023/08/13 08:47:34;;;;;;;4.65;2.80;;;29.40;99.50;;;;;;5036281;28;20189;-76
2023/08/13 08:50:04;;;;;;;5.03;2.78;;;29.90;98.00;;;;;;5035855;28;20219;-75
2023/08/13 08:52:34;;;;;;;5.07;3.20;;;30.20;96.90;;;;;;5035224;28;20216;-75
2023/08/13 08:55:04;;;;;;;5.47;3.80;;;30.10;96.60;;;;;;5036724;28;20200;-77
2023/08/13 08:57:32;;;;;;;3.92;3.20;;;31.20;94.00;;;;;;5035618;28;20215;-77
2023/08/13 09:00:02;;;;;;;4.70;3.22;;;31.00;92.70;;;;;;5035786;28;20204;-78
2023/08/13 09:02:31;;;;;;;6.65;3.22;;;30.80;92.60;;;;;;5039555;28;20211;-79
2023/08/13 09:04:59;;;;;;;4.20;2.88;;;30.90;93.70;;;;;;5055294;28;20224;-76
2023/08/13 09:07:31;;;;;;;4.82;2.90;;;31.10;94.60;;;;;;5055577;28;20223;-79
2023/08/13 09:09:59;;;;;;;5.38;3.05;;;31.70;91.50;;;;;;5051704;28;20205;-77
2023/08/13 09:12:34;;;;;;;5.05;3.03;;;32.70;88.60;;;;;;5035530;28;20204;-77
2023/08/13 09:15:09;;;;;;;6.70;2.88;;;33.30;83.50;;;;;;5036537;28;20266;-75
2023/08/13 09:17:39;;;;;;;4.60;2.97;;;32.70;84.10;;;;;;5036458;28;20220;-76
2023/08/13 09:20:10;;;;;;;6.38;3.03;;;32.30;85.10;;;;;;5035641;28;20212;-75
2023/08/13 09:22:38;;;;;;;5.18;2.80;;;32.30;86.50;;;;;;5035659;28;20679;-76
2023/08/13 09:25:09;;;;;;;5.50;2.92;;;31.70;90.20;;;;;;5038920;28;20270;-75
2023/08/13 09:27:38;;;;;;;5.75;2.78;;;31.20;90.70;;;;;;5056143;28;20205;-77
2023/08/13 09:30:12;;;;;;;4.53;2.72;;;30.80;91.90;;;;;;5046099;28;20213;-76
2023/08/13 09:32:42;;;;;;;4.68;3.33;;;30.40;93.30;;;;;;5036083;28;20200;-75
2023/08/13 09:35:10;;;;;;;4.20;3.00;;;30.20;93.40;;;;;;5035760;28;20231;-79
2023/08/13 09:37:38;;;;;;;5.80;2.90;;;30.10;94.30;;;;;;5035105;28;20212;-77
2023/08/13 09:40:08;;;;;;;4.18;3.10;;;30.20;94.40;;;;;;5047381;28;20212;-75
2023/08/13 09:42:36;;;;;;;4.88;3.25;;;30.80;93.30;;;;;;5054889;28;20208;-76
2023/08/13 09:45:10;;;;;;;6.18;3.20;;;31.10;92.40;;;;;;5054410;28;20259;-76
2023/08/13 09:47:41;;;;;;;5.93;3.38;;;31.40;91.10;;;;;;5045454;28;20212;-76
2023/08/13 09:50:12;;;;;;;5.60;3.20;;;30.80;93.00;;;;;;5034963;28;20225;-76
2023/08/13 09:52:44;;;;;;;5.93;3.10;;;30.50;93.20;;;;;;5034839;28;20258;-72
2023/08/13 09:55:13;;;;;;;4.75;2.97;;;30.20;93.40;;;;;;5034468;28;20209;-73
2023/08/13 09:57:43;;;;;;;4.20;3.15;;;30.50;93.50;;;;;;5042226;28;20588;-75
2023/08/13 10:00:14;;;;;;;6.63;3.25;;;31.00;94.00;;;;;;5054632;28;20270;-75
2023/08/13 10:02:44;;;;;;;4.55;2.80;;;30.60;92.30;;;;;;5054546;28;20193;-77
2023/08/13 10:05:14;;;;;;;6.55;3.40;;;30.60;93.90;;;;;;5055054;28;20235;-75
2023/08/13 10:07:43;;;;;;;5.93;3.22;;;31.40;91.90;;;;;;5036002;28;20274;-76
2023/08/13 10:10:11;;;;;;;6.63;3.17;;;32.30;90.10;;;;;;5034166;28;20667;-74
2023/08/13 10:12:40;;;;;;;7.68;3.10;;;33.00;86.90;;;;;;5034229;28;20640;-76
2023/08/13 10:15:09;;;;;;;4.78;3.13;;;33.80;81.40;;;;;;5034128;28;20224;-74
2023/08/13 10:17:39;;;;;;;4.75;3.00;;;34.00;80.00;;;;;;5033003;28;20208;-74
2023/08/13 10:20:09;;;;;;;5.88;3.10;;;33.80;79.20;;;;;;5032699;28;20598;-74
2023/08/13 10:22:39;;;;;;;3.83;3.00;;;34.30;78.40;;;;;;5031899;28;20229;-74
2023/08/13 10:25:10;;;;;;;6.38;2.78;;;34.40;78.30;;;;;;5043086;28;20251;-74
2023/08/13 10:27:44;;;;;;;6.40;3.05;;;34.40;75.80;;;;;;5032275;28;20220;-74
2023/08/13 10:30:14;;;;;;;6.85;3.42;;;34.60;75.70;;;;;;5032506;28;20235;-77
2023/08/13 10:32:52;;;;;;;4.40;3.00;;;35.10;72.10;;;;;;5032294;28;20221;-73
2023/08/13 10:35:39;;;;;;;4.28;2.92;;;35.00;72.80;;;;;;5034474;28;20228;-77
2023/08/13 10:38:08;;;;;;;6.32;2.97;;;35.30;69.70;;;;;;5034958;28;20671;-75
2023/08/13 10:40:59;;;;;;;6.93;2.85;;;34.70;72.80;;;;;;5032625;28;20678;-76
2023/08/13 10:43:27;;;;;;;4.20;3.15;;;35.00;69.60;;;;;;5033685;28;20209;-78
2023/08/13 10:45:56;;;;;;;4.38;3.05;;;34.10;71.30;;;;;;5033751;28;20251;-76
2023/08/13 10:48:29;;;;;;;4.90;3.30;;;34.10;74.10;;;;;;5033102;28;20215;-75
2023/08/13 10:50:58;;;;;;;5.50;2.85;;;34.00;73.00;;;;;;5047758;28;20215;-77
2023/08/13 10:53:28;;;;;;;4.13;2.92;;;33.50;75.00;;;;;;5052844;28;20204;-76
2023/08/13 10:55:59;;;;;;;4.50;3.08;;;32.90;75.40;;;;;;5051669;28;20763;-78
2023/08/13 10:58:28;;;;;;;5.30;2.75;;;32.40;78.80;;;;;;5050561;28;20197;-76
2023/08/13 11:00:59;;;;;;;5.88;3.05;;;31.90;80.10;;;;;;5033415;28;20205;-78
2023/08/13 11:03:31;;;;;;;3.28;2.92;;;31.80;83.10;;;;;;5044178;28;20211;-78
2023/08/13 11:06:00;;;;;;;5.28;3.00;;;31.60;85.10;;;;;;5048666;28;20223;-75
2023/08/13 11:08:28;;;;;;;4.20;3.08;;;31.80;83.90;;;;;;5047789;28;20312;-76
2023/08/13 11:11:14;;;;;;;4.20;2.90;;;32.20;81.90;;;;;;5051033;28;20193;-74
2023/08/13 11:13:42;;;;;;;4.78;3.25;;;31.90;83.90;;;;;;5050708;28;20212;-75
2023/08/13 11:16:11;;;;;;;3.60;3.00;;;32.00;82.20;;;;;;5050219;28;20642;-76
2023/08/13 11:18:41;;;;;;;4.22;2.78;;;32.00;82.30;;;;;;5050446;28;20210;-77
2023/08/13 11:21:09;;;;;;;3.10;2.80;;;31.70;85.30;;;;;;5048865;28;20651;-78
2023/08/13 11:23:37;;;;;;;4.43;2.85;;;31.70;87.50;;;;;;5047500;28;20236;-79
2023/08/13 11:26:05;;;;;;;4.65;3.22;;;31.90;88.20;;;;;;5051062;28;20250;-79
2023/08/13 11:28:34;;;;;;;6.60;3.50;;;31.90;87.40;;;;;;5052470;28;20207;-78
2023/08/13 11:31:02;;;;;;;5.10;3.05;;;31.80;90.80;;;;;;5053112;28;20294;-79
2023/08/13 11:33:30;;;;;;;4.50;2.80;;;32.00;86.70;;;;;;5044580;28;20208;-77
2023/08/13 11:36:00;;;;;;;4.40;2.90;;;31.90;87.00;;;;;;5032583;28;20235;-77
2023/08/13 11:38:29;;;;;;;5.38;3.00;;;32.00;86.00;;;;;;5033013;28;20213;-77
2023/08/13 11:40:57;;;;;;;3.25;2.92;;;32.00;86.50;;;;;;5032649;28;20220;-77
2023/08/13 11:43:29;;;;;;;4.40;3.08;;;31.90;86.90;;;;;;5033456;28;20227;-78
2023/08/13 11:45:57;;;;;;;4.00;2.90;;;32.10;85.30;;;;;;5033914;28;20667;-76
2023/08/13 11:48:27;;;;;;;4.38;3.00;;;31.90;86.10;;;;;;5033113;28;20582;-77
2023/08/13 11:51:10;;;;;;;4.68;3.08;;;31.70;85.80;;;;;;5032523;28;20231;-78
2023/08/13 11:53:49;;;;;;;3.88;2.80;;;31.80;86.90;;;;;;5031789;28;20240;-76
2023/08/13 11:56:19;;;;;;;5.18;3.20;;;31.50;88.20;;;;;;5033698;28;20229;-76
2023/08/13 11:58:49;;;;;;;4.68;3.15;;;31.40;89.90;;;;;;5051781;28;20250;-75
2023/08/13 12:01:17;;;;;;;5.03;3.30;;;31.50;87.60;;;;;;5052415;28;20207;-78
2023/08/13 12:03:46;;;;;;;3.13;2.83;;;31.50;89.20;;;;;;5037781;28;20212;-78
2023/08/13 12:06:14;;;;;;;4.67;3.27;;;31.50;86.90;;;;;;5031971;28;20212;-74
2023/08/13 12:08:45;;;;;;;6.00;3.20;;;31.30;87.20;;;;;;5032181;28;20235;-76
2023/08/13 12:11:14;;;;;;;4.83;3.00;;;31.30;88.90;;;;;;5033556;28;20288;-76
2023/08/13 12:13:45;;;;;;;5.97;3.10;;;31.20;90.00;;;;;;5034761;28;20217;-77
2023/08/13 12:16:13;;;;;;;4.53;3.00;;;31.40;88.60;;;;;;5035171;28;20244;-76
2023/08/13 12:18:42;;;;;;;6.13;2.90;;;31.60;89.60;;;;;;5041302;28;20254;-77
2023/08/13 12:21:10;;;;;;;4.27;3.20;;;31.30;88.70;;;;;;5054533;28;20214;-77
2023/08/13 12:23:38;;;;;;;3.93;3.00;;;31.50;89.30;;;;;;5055605;28;20721;-77
2023/08/13 12:26:06;;;;;;;4.82;2.78;;;31.30;89.20;;;;;;5055431;28;20224;-78
2023/08/13 12:28:36;;;;;;;5.00;3.10;;;31.20;90.00;;;;;;5046088;28;20216;-77
2023/08/13 12:31:04;;;;;;;5.10;2.80;;;31.20;91.70;;;;;;5036109;28;20209;-76
2023/08/13 12:33:32;;;;;;;4.27;3.27;;;31.20;91.00;;;;;;5032083;28;20217;-77
2023/08/13 12:36:00;;;;;;;5.67;2.90;;;31.10;91.00;;;;;;5034642;28;20236;-73
2023/08/13 12:38:29;;;;;;;4.60;3.33;;;31.10;90.10;;;;;;5035137;28;20276;-76
2023/08/13 12:40:57;;;;;;;4.90;3.37;;;30.90;89.10;;;;;;5035613;28;20729;-77
2023/08/13 12:43:25;;;;;;;5.07;3.10;;;30.90;90.00;;;;;;5035530;28;20208;-76
2023/08/13 12:45:54;;;;;;;4.07;3.10;;;30.80;89.10;;;;;;5035307;28;20208;-74
2023/08/13 12:48:23;;;;;;;9.43;3.37;;;31.00;90.50;;;;;;5035205;28;20209;-78
2023/08/13 12:50:51;;;;;;;3.80;2.90;;;31.10;89.40;;;;;;5035567;28;20683;-78
2023/08/13 12:53:20;;;;;;;3.60;2.97;;;31.00;87.10;;;;;;5034540;28;20244;-75
2023/08/13 12:55:48;;;;;;;6.20;3.23;;;30.90;89.60;;;;;;5034305;28;20228;-75